Time;durP1;ratioP1;P1;durP2;ratioP2;P2;SDS_P1;SDS_P2;PMS_P1;PMS_P2;Temp;Humidity;BMP_temperature;BMP_pressure;BME280_temperature;BME280_humidity;BME280_pressure;Samples;Min_cycle;Max_cycle;Signal;HPM_P1;HPM_P2
2023/05/11 00:02:25;;;;;;;1999.90;999.90;;;26.60;90.10;;;;;;5080895;28;20019;-68
2023/05/11 00:04:53;;;;;;;1999.90;999.90;;;26.80;90.10;;;;;;5076747;28;20039;-69
2023/05/11 00:07:20;;;;;;;1999.90;999.90;;;27.20;89.10;;;;;;5083130;28;20398;-67
2023/05/11 00:09:48;;;;;;;1999.90;999.90;;;27.60;87.20;;;;;;5079947;28;20072;-69
2023/05/11 00:12:15;;;;;;;1999.90;999.90;;;27.50;87.50;;;;;;5082616;28;20028;-68
2023/05/11 00:14:42;;;;;;;1999.90;999.90;;;27.50;87.80;;;;;;5078918;28;20031;-69
2023/05/11 00:17:10;;;;;;;1999.90;999.90;;;28.00;86.40;;;;;;5081137;28;20027;-69
2023/05/11 00:19:38;;;;;;;1999.90;999.90;;;28.00;86.80;;;;;;5077549;28;20024;-69
2023/05/11 00:22:06;;;;;;;1999.90;999.90;;;28.20;85.80;;;;;;5085642;28;20027;-67
2023/05/11 00:24:33;;;;;;;1999.90;999.90;;;28.30;86.10;;;;;;5078605;28;20031;-69
2023/05/11 00:27:01;;;;;;;1999.90;999.90;;;28.60;84.60;;;;;;5073020;28;20137;-69
2023/05/11 00:29:28;;;;;;;1999.90;999.90;;;28.70;85.40;;;;;;5078071;28;20028;-68
2023/05/11 00:31:55;;;;;;;1999.90;999.90;;;28.50;85.70;;;;;;5078138;28;20134;-68
2023/05/11 00:34:26;;;;;;;1999.90;999.90;;;28.50;85.50;;;;;;5083683;28;20028;-67
2023/05/11 00:36:53;;;;;;;1999.90;999.90;;;29.00;84.20;;;;;;5081571;28;20636;-68
2023/05/11 00:39:20;;;;;;;1999.90;999.90;;;29.20;83.60;;;;;;5076188;28;20020;-68
2023/05/11 00:41:48;;;;;;;1999.90;999.90;;;29.00;85.30;;;;;;5086713;28;20113;-68
2023/05/11 00:44:15;;;;;;;1999.90;999.90;;;29.40;85.00;;;;;;5062718;28;20470;-68
2023/05/11 00:46:43;;;;;;;1999.90;999.90;;;29.60;83.70;;;;;;5087044;28;22039;-68
2023/05/11 00:49:10;;;;;;;1999.90;999.90;;;29.60;83.40;;;;;;5072419;28;21069;-68
2023/05/11 00:51:38;;;;;;;1999.90;999.90;;;30.10;82.10;;;;;;5079924;28;20032;-69
2023/05/11 00:54:11;;;;;;;1999.90;999.90;;;29.90;82.90;;;;;;5068135;28;20043;-68
2023/05/11 00:56:40;;;;;;;1999.90;999.90;;;30.00;82.90;;;;;;5091454;28;20061;-67
2023/05/11 00:59:08;;;;;;;1999.90;999.90;;;29.80;82.50;;;;;;5089804;28;20505;-67
2023/05/11 01:01:37;;;;;;;1999.90;999.90;;;29.90;82.30;;;;;;5081962;28;20711;-66
2023/05/11 01:04:05;;;;;;;1999.90;999.90;;;30.10;82.30;;;;;;5090539;28;20024;-67
2023/05/11 01:06:43;;;;;;;1999.90;999.90;;;30.20;81.40;;;;;;5084694;28;20055;-67
2023/05/11 01:09:23;;;;;;;1999.90;999.90;;;30.50;81.00;;;;;;5081756;28;20044;-68
2023/05/11 01:12:12;;;;;;;1999.90;999.90;;;30.70;80.00;;;;;;5088192;28;20027;-67
2023/05/11 01:15:10;;;;;;;1999.90;999.90;;;30.50;81.40;;;;;;5078600;28;20024;-66
2023/05/11 01:18:06;;;;;;;1999.90;999.90;;;30.40;80.90;;;;;;5037617;28;20055;-67
2023/05/11 01:20:33;;;;;;;1999.90;999.90;;;30.70;80.10;;;;;;5083145;28;20074;-66
2023/05/11 01:23:28;;;;;;;1999.90;999.90;;;30.60;80.30;;;;;;5079286;28;20028;-68
2023/05/11 01:25:58;;;;;;;1999.90;999.90;;;30.60;80.20;;;;;;5078579;28;20509;-68
2023/05/11 01:28:56;;;;;;;1999.90;999.90;;;30.50;79.20;;;;;;5084515;28;20028;-67
2023/05/11 01:31:27;;;;;;;1999.90;999.90;;;29.60;80.00;;;;;;5087037;28;20404;-67
2023/05/11 01:34:01;;;;;;;1999.90;999.90;;;29.10;81.60;;;;;;5088848;28;20177;-67
2023/05/11 01:36:40;;;;;;;1999.90;999.90;;;28.60;82.60;;;;;;5070928;28;20024;-67
2023/05/11 01:39:11;;;;;;;1999.90;999.90;;;28.90;82.40;;;;;;5083825;28;20182;-66
2023/05/11 01:41:41;;;;;;;1999.90;999.90;;;29.30;82.30;;;;;;5089794;28;20066;-67
2023/05/11 01:44:11;;;;;;;1999.90;999.90;;;29.70;81.80;;;;;;5068904;28;20557;-67
2023/05/11 01:46:39;;;;;;;1999.90;999.90;;;30.10;80.90;;;;;;5091342;28;20046;-66
2023/05/11 01:49:07;;;;;;;1999.90;999.90;;;30.30;81.30;;;;;;5087806;28;20116;-66
2023/05/11 01:51:38;;;;;;;1999.90;999.90;;;30.30;80.20;;;;;;5083393;28;20498;-69
2023/05/11 01:54:09;;;;;;;1999.90;999.90;;;30.40;81.00;;;;;;5083798;28;20080;-66
2023/05/11 01:56:40;;;;;;;1999.90;999.90;;;30.70;80.50;;;;;;5091193;28;20024;-67
2023/05/11 01:59:10;;;;;;;1999.90;999.90;;;30.60;80.00;;;;;;5073670;28;20127;-68
2023/05/11 02:01:40;;;;;;;1999.90;999.90;;;30.20;79.40;;;;;;5074625;28;20043;-68
2023/05/11 02:04:10;;;;;;;1999.90;999.90;;;29.50;80.40;;;;;;5074797;28;20451;-67
2023/05/11 02:06:38;;;;;;;1999.90;999.90;;;29.10;80.70;;;;;;5083892;28;20024;-66
2023/05/11 02:09:08;;;;;;;1999.90;999.90;;;28.30;82.90;;;;;;5085218;28;20078;-67
2023/05/11 02:11:37;;;;;;;1999.90;999.90;;;28.40;82.70;;;;;;5096647;28;20024;-67
2023/05/11 02:14:06;;;;;;;1999.90;999.90;;;28.20;81.80;;;;;;5086551;28;20038;-66
2023/05/11 02:16:35;;;;;;;1999.90;999.90;;;28.00;83.20;;;;;;5080280;28;20028;-67
2023/05/11 02:19:03;;;;;;;1999.90;999.90;;;27.80;82.40;;;;;;5090816;28;20056;-66
2023/05/11 02:21:32;;;;;;;1999.90;999.90;;;27.90;82.60;;;;;;5099798;28;20409;-66
2023/05/11 02:24:02;;;;;;;1999.90;999.90;;;28.20;83.00;;;;;;5090980;28;20029;-66
2023/05/11 02:26:31;;;;;;;1999.90;999.90;;;28.20;82.70;;;;;;5090791;28;20030;-65
2023/05/11 02:28:58;;;;;;;1999.90;999.90;;;28.10;81.80;;;;;;5073228;28;20485;-67
2023/05/11 02:31:29;;;;;;;1999.90;999.90;;;27.30;83.70;;;;;;5091724;28;20050;-67
2023/05/11 02:34:07;;;;;;;1999.90;999.90;;;27.30;84.00;;;;;;5098449;28;20536;-66
2023/05/11 02:36:38;;;;;;;1999.90;999.90;;;26.70;83.70;;;;;;5097354;28;20036;-66
2023/05/11 02:39:09;;;;;;;1999.90;999.90;;;26.60;85.10;;;;;;5085969;28;20089;-67
2023/05/11 02:41:42;;;;;;;1999.90;999.90;;;26.50;84.40;;;;;;5094480;28;20618;-67
2023/05/11 02:44:14;;;;;;;1999.90;999.90;;;26.50;85.30;;;;;;5093806;28;20020;-67
2023/05/11 02:46:46;;;;;;;1999.90;999.90;;;26.80;86.10;;;;;;5094585;28;20067;-66
2023/05/11 02:49:17;;;;;;;1999.90;999.90;;;27.00;84.70;;;;;;5085719;28;20025;-68
2023/05/11 02:51:47;;;;;;;1999.90;999.90;;;26.90;84.40;;;;;;5087695;28;20028;-67
2023/05/11 02:54:16;;;;;;;1999.90;999.90;;;26.20;84.20;;;;;;5093149;28;20111;-67
2023/05/11 02:56:45;;;;;;;1999.90;999.90;;;25.70;85.70;;;;;;5090231;28;20066;-66
2023/05/11 02:59:13;;;;;;;1999.90;999.90;;;25.30;85.50;;;;;;5087683;28;20512;-67
2023/05/11 03:01:41;;;;;;;1999.90;999.90;;;24.90;87.00;;;;;;5094793;28;20103;-69
2023/05/11 03:04:08;;;;;;;1999.90;999.90;;;25.10;87.20;;;;;;5093932;28;20035;-66
2023/05/11 03:06:36;;;;;;;1999.90;999.90;;;24.90;85.60;;;;;;5095687;28;20031;-67
2023/05/11 03:09:04;;;;;;;1999.90;999.90;;;24.30;86.70;;;;;;5081340;28;20028;-66
2023/05/11 03:11:31;;;;;;;1999.90;999.90;;;24.40;87.50;;;;;;5072000;28;20027;-66
2023/05/11 03:14:00;;;;;;;1999.90;999.90;;;24.70;86.70;;;;;;5089778;28;20016;-68
2023/05/11 03:16:29;;;;;;;1999.90;999.90;;;25.00;87.30;;;;;;5088817;28;20032;-68
2023/05/11 03:18:57;;;;;;;1999.90;999.90;;;25.20;87.20;;;;;;5092786;28;20028;-67
2023/05/11 03:21:25;;;;;;;1999.90;999.90;;;25.30;86.80;;;;;;5100230;28;20036;-67
2023/05/11 03:23:53;;;;;;;1999.90;999.90;;;25.40;86.40;;;;;;5097994;28;20543;-68
2023/05/11 03:26:23;;;;;;;1999.90;999.90;;;25.40;85.00;;;;;;5098147;28;20127;-67
2023/05/11 03:28:51;;;;;;;1999.90;999.90;;;25.20;82.50;;;;;;5087799;28;20073;-68
2023/05/11 03:31:19;;;;;;;1999.90;999.90;;;25.20;82.90;;;;;;5087425;28;20024;-67
2023/05/11 03:33:47;;;;;;;1999.90;999.90;;;25.00;83.90;;;;;;5089356;28;20039;-68
2023/05/11 03:36:15;;;;;;;1999.90;999.90;;;24.90;84.60;;;;;;5089157;28;20035;-67
2023/05/11 03:38:44;;;;;;;1999.90;999.90;;;24.70;84.70;;;;;;5092584;28;20078;-67
2023/05/11 03:41:16;;;;;;;1999.90;999.90;;;24.60;85.60;;;;;;5088645;28;20051;-66
2023/05/11 03:43:46;;;;;;;1999.90;999.90;;;24.30;84.90;;;;;;5095153;28;20544;-68
2023/05/11 03:46:15;;;;;;;1999.90;999.90;;;24.00;84.30;;;;;;5077884;28;20388;-66
2023/05/11 03:48:43;;;;;;;1999.90;999.90;;;23.60;84.20;;;;;;5070249;28;20080;-68
2023/05/11 03:51:11;;;;;;;1999.90;999.90;;;23.30;85.30;;;;;;5084678;28;20069;-69
2023/05/11 03:53:38;;;;;;;1999.90;999.90;;;23.10;86.20;;;;;;5080806;28;20028;-67
2023/05/11 03:56:06;;;;;;;1999.90;999.90;;;23.00;86.30;;;;;;5085814;28;20036;-68
2023/05/11 03:58:39;;;;;;;1999.90;999.90;;;22.90;86.40;;;;;;5087271;28;20044;-67
2023/05/11 04:01:11;;;;;;;1999.90;999.90;;;22.90;87.00;;;;;;5083626;28;20052;-68
2023/05/11 04:03:52;;;;;;;1999.90;999.90;;;22.80;87.20;;;;;;5090515;28;20031;-68
2023/05/11 04:06:20;;;;;;;1999.90;999.90;;;22.70;86.90;;;;;;5087241;28;20036;-68
2023/05/11 04:08:48;;;;;;;1999.90;999.90;;;22.50;87.00;;;;;;5075482;28;20028;-68
2023/05/11 04:11:15;;;;;;;1999.90;999.90;;;22.30;87.10;;;;;;5070501;28;20027;-68
2023/05/11 04:13:43;;;;;;;1999.90;999.90;;;22.10;87.50;;;;;;5088060;28;20485;-68
2023/05/11 04:16:10;;;;;;;1999.90;999.90;;;21.90;88.10;;;;;;5083708;28;20093;-68
2023/05/11 04:18:37;;;;;;;1999.90;999.90;;;21.70;89.40;;;;;;5084995;28;20032;-68
2023/05/11 04:21:05;;;;;;;1999.90;999.90;;;21.60;88.60;;;;;;5091421;28;20064;-68
2023/05/11 04:23:32;;;;;;;1999.90;999.90;;;21.60;89.50;;;;;;5091490;28;20028;-68
2023/05/11 04:26:00;;;;;;;1999.90;999.90;;;21.50;90.10;;;;;;5087930;28;20024;-68
2023/05/11 04:28:28;;;;;;;1999.90;999.90;;;21.50;90.00;;;;;;5087093;28;20028;-68
2023/05/11 04:30:56;;;;;;;1999.90;999.90;;;21.50;90.30;;;;;;5086452;28;20035;-68
2023/05/11 04:33:24;;;;;;;1999.90;999.90;;;21.40;90.60;;;;;;5085208;28;20062;-68
2023/05/11 04:35:52;;;;;;;1999.90;999.90;;;21.30;90.50;;;;;;5081916;28;20044;-68
2023/05/11 04:38:21;;;;;;;1999.90;999.90;;;21.20;90.90;;;;;;5091065;28;20405;-68
2023/05/11 04:40:49;;;;;;;1999.90;999.90;;;21.10;91.10;;;;;;5086857;28;20520;-68
2023/05/11 04:43:17;;;;;;;1999.90;999.90;;;21.00;91.20;;;;;;5088427;28;20444;-68
2023/05/11 04:45:51;;;;;;;1999.90;999.90;;;20.90;91.20;;;;;;5077935;28;20400;-69
2023/05/11 04:48:18;;;;;;;1999.90;999.90;;;20.90;91.30;;;;;;5063640;28;20039;-68
2023/05/11 04:50:45;;;;;;;1999.90;999.90;;;20.80;91.20;;;;;;5088534;28;20054;-68
2023/05/11 04:53:13;;;;;;;1999.90;999.90;;;20.70;91.10;;;;;;5092091;28;20028;-68
2023/05/11 04:55:40;;;;;;;1999.90;999.90;;;20.80;91.50;;;;;;5090617;28;20032;-68
2023/05/11 04:58:07;;;;;;;1999.90;999.90;;;20.80;91.50;;;;;;5086262;28;20028;-69
2023/05/11 05:00:35;;;;;;;1999.90;999.90;;;20.80;91.50;;;;;;5086908;28;20050;-68
2023/05/11 05:03:03;;;;;;;1999.90;999.90;;;20.80;91.70;;;;;;5088498;28;20031;-68
2023/05/11 05:05:30;;;;;;;1999.90;999.90;;;20.80;91.80;;;;;;5086371;28;20195;-69
2023/05/11 05:07:57;;;;;;;1999.90;999.90;;;20.80;91.70;;;;;;5086378;28;20493;-68
2023/05/11 05:10:25;;;;;;;1999.90;999.90;;;20.80;91.60;;;;;;5071686;28;20028;-68
2023/05/11 05:12:52;;;;;;;1999.90;999.90;;;20.70;91.40;;;;;;5089212;28;20564;-67
2023/05/11 05:15:20;;;;;;;1999.90;999.90;;;20.70;91.20;;;;;;5092885;28;20028;-69
2023/05/11 05:17:47;;;;;;;1999.90;999.90;;;20.70;91.20;;;;;;5081964;28;20024;-70
2023/05/11 05:20:15;;;;;;;1999.90;999.90;;;20.60;91.30;;;;;;5081340;28;20047;-68
2023/05/11 05:22:42;;;;;;;1999.90;999.90;;;20.60;90.90;;;;;;5071784;28;20051;-68
2023/05/11 05:25:10;;;;;;;1999.90;999.90;;;20.60;90.70;;;;;;5082069;28;20488;-69
2023/05/11 05:27:38;;;;;;;1999.90;999.90;;;20.60;91.00;;;;;;5087741;28;20435;-68
2023/05/11 05:30:06;;;;;;;1999.90;999.90;;;20.70;91.20;;;;;;5083821;28;20028;-69
2023/05/11 05:32:33;;;;;;;1999.90;999.90;;;20.70;91.10;;;;;;5077296;28;20506;-69
2023/05/11 05:35:00;;;;;;;1999.90;999.90;;;20.70;90.80;;;;;;5086611;28;20059;-70
2023/05/11 05:37:28;;;;;;;1999.90;999.90;;;20.70;91.20;;;;;;5080456;28;20028;-68
2023/05/11 05:39:55;;;;;;;1999.90;999.90;;;20.70;91.30;;;;;;5079961;28;20134;-68
2023/05/11 05:42:23;;;;;;;1999.90;999.90;;;20.70;91.30;;;;;;5083876;28;20024;-69
2023/05/11 05:44:50;;;;;;;1999.90;999.90;;;20.70;91.40;;;;;;5083622;28;20020;-68
2023/05/11 05:47:17;;;;;;;1999.90;999.90;;;20.80;91.40;;;;;;5090698;28;20119;-67
2023/05/11 05:49:44;;;;;;;1999.90;999.90;;;20.80;91.50;;;;;;5077239;28;20353;-69
2023/05/11 05:52:12;;;;;;;1999.90;999.90;;;20.90;91.50;;;;;;5084808;28;20127;-70
2023/05/11 05:54:39;;;;;;;1999.90;999.90;;;21.00;91.80;;;;;;5086965;28;21510;-69
2023/05/11 05:57:06;;;;;;;1999.90;999.90;;;21.00;91.90;;;;;;5086682;28;20012;-69
2023/05/11 05:59:34;;;;;;;1999.90;999.90;;;21.00;91.90;;;;;;5075563;28;20045;-69
2023/05/11 06:02:01;;;;;;;1999.90;999.90;;;21.10;92.00;;;;;;5077581;28;20040;-69
2023/05/11 06:04:28;;;;;;;1999.90;999.90;;;21.10;91.90;;;;;;5078978;28;20024;-69
2023/05/11 06:06:56;;;;;;;1999.90;999.90;;;21.20;92.00;;;;;;5080545;28;20035;-68
2023/05/11 06:09:24;;;;;;;1999.90;999.90;;;21.20;91.80;;;;;;5065817;28;20029;-69
2023/05/11 06:11:54;;;;;;;1999.90;999.90;;;21.20;91.90;;;;;;5075963;28;20168;-68
2023/05/11 06:14:22;;;;;;;1999.90;999.90;;;21.20;91.90;;;;;;5077175;28;20103;-67
2023/05/11 06:16:49;;;;;;;1999.90;999.90;;;21.20;92.40;;;;;;5079179;28;20024;-68
2023/05/11 06:19:17;;;;;;;1999.90;999.90;;;21.20;92.60;;;;;;5079961;28;20077;-68
2023/05/11 06:21:45;;;;;;;1999.90;999.90;;;21.20;92.60;;;;;;5085256;28;20841;-69
2023/05/11 06:24:12;;;;;;;1999.90;999.90;;;21.10;92.70;;;;;;5086202;28;20138;-69
2023/05/11 06:26:40;;;;;;;1999.90;999.90;;;21.10;92.80;;;;;;5084073;28;20040;-69
2023/05/11 06:29:07;;;;;;;1999.90;999.90;;;21.00;92.80;;;;;;5082995;28;20036;-69
2023/05/11 06:31:35;;;;;;;1999.90;999.90;;;20.90;92.80;;;;;;5080532;28;20401;-69
2023/05/11 06:34:03;;;;;;;1999.90;999.90;;;20.70;93.00;;;;;;5077021;28;20356;-69
2023/05/11 06:36:31;;;;;;;1999.90;999.90;;;20.60;93.40;;;;;;5079405;28;22855;-70
2023/05/11 06:38:58;;;;;;;1999.90;999.90;;;20.50;93.60;;;;;;5084848;28;20551;-69
2023/05/11 06:41:25;;;;;;;1999.90;999.90;;;20.30;93.50;;;;;;5083241;28;20067;-71
2023/05/11 06:44:11;;;;;;;1999.90;999.90;;;20.10;93.60;;;;;;5084887;28;20027;-69
2023/05/11 06:46:38;;;;;;;;;;;20.00;93.80;;;;;;5092520;28;20028;-69
2023/05/11 06:49:07;;;;;;;1999.90;999.90;;;19.80;94.00;;;;;;5096482;28;19958;-71
2023/05/11 06:51:35;;;;;;;1999.90;999.90;;;19.60;94.20;;;;;;5084938;28;20036;-69
2023/05/11 06:54:02;;;;;;;1999.90;999.90;;;19.50;94.50;;;;;;5085653;28;20021;-68
2023/05/11 06:56:30;;;;;;;1999.90;999.90;;;19.30;94.70;;;;;;5091497;28;20082;-67
2023/05/11 06:58:58;;;;;;;1999.90;999.90;;;19.20;95.10;;;;;;5077674;28;20215;-68
2023/05/11 07:01:26;;;;;;;1999.90;999.90;;;19.00;95.40;;;;;;5095018;28;20044;-69
2023/05/11 07:03:57;;;;;;;1999.90;999.90;;;18.90;95.70;;;;;;5076897;28;20023;-69
2023/05/11 07:06:25;;;;;;;1999.90;999.90;;;18.80;95.90;;;;;;5070629;28;20023;-69
2023/05/11 07:08:52;;;;;;;1999.90;999.90;;;18.60;96.20;;;;;;5096219;28;20032;-68
2023/05/11 07:11:20;;;;;;;1999.90;999.90;;;18.50;96.40;;;;;;5092897;28;20036;-69
2023/05/11 07:13:48;;;;;;;1999.90;999.90;;;18.40;96.50;;;;;;5090614;28;20039;-70
2023/05/11 07:16:15;;;;;;;1999.90;999.90;;;18.30;96.90;;;;;;5097114;28;20033;-69
2023/05/11 07:18:43;;;;;;;1999.90;999.90;;;18.20;97.30;;;;;;5088148;28;20024;-68
2023/05/11 07:21:10;;;;;;;1999.90;999.90;;;18.10;97.80;;;;;;5081046;28;20029;-69
2023/05/11 07:23:37;;;;;;;1999.90;999.90;;;18.00;98.00;;;;;;5091862;28;20028;-67
2023/05/11 07:26:08;;;;;;;1999.90;999.90;;;17.90;98.60;;;;;;5085113;28;20025;-68
2023/05/11 07:28:39;;;;;;;1999.90;999.90;;;17.80;99.10;;;;;;5081471;28;20040;-68
2023/05/11 07:31:06;;;;;;;1999.90;999.90;;;17.60;99.60;;;;;;5082508;28;20024;-68
2023/05/11 07:33:36;;;;;;;1999.90;999.90;;;17.60;99.90;;;;;;5086928;28;20031;-70
2023/05/11 07:36:03;;;;;;;1999.90;999.90;;;17.50;99.90;;;;;;5081948;28;20030;-68
2023/05/11 07:38:31;;;;;;;1999.90;999.90;;;17.40;99.90;;;;;;5084437;28;20655;-69
2023/05/11 07:40:58;;;;;;;1999.90;999.90;;;17.40;99.90;;;;;;5079682;28;20406;-67
2023/05/11 07:43:25;;;;;;;1999.90;999.90;;;17.30;99.90;;;;;;5085570;28;20031;-69
2023/05/11 07:45:53;;;;;;;1999.90;999.90;;;17.20;99.90;;;;;;5085743;28;20394;-69
2023/05/11 07:48:20;;;;;;;1999.90;999.90;;;17.20;99.90;;;;;;5072195;28;20048;-69
2023/05/11 07:50:50;;;;;;;1999.90;999.90;;;17.10;99.90;;;;;;5082538;28;20661;-69
2023/05/11 07:53:18;;;;;;;1999.90;999.90;;;17.10;99.90;;;;;;5081720;28;20740;-69
2023/05/11 07:55:45;;;;;;;1999.90;999.90;;;17.20;99.90;;;;;;5083226;28;20031;-70
2023/05/11 07:58:13;;;;;;;1999.90;999.90;;;17.20;99.90;;;;;;5090817;28;20105;-68
2023/05/11 08:00:42;;;;;;;1999.90;999.90;;;17.20;99.90;;;;;;5082496;28;20032;-69
2023/05/11 08:03:09;;;;;;;1999.90;999.90;;;17.20;99.90;;;;;;5077500;28;20051;-71
2023/05/11 08:05:36;;;;;;;1999.90;999.90;;;17.30;99.90;;;;;;5084001;28;20028;-70
2023/05/11 08:08:05;;;;;;;1999.90;999.90;;;17.20;99.90;;;;;;5074911;28;20509;-70
2023/05/11 08:10:32;;;;;;;1999.90;999.90;;;17.20;99.90;;;;;;5067815;28;20127;-69
2023/05/11 08:13:00;;;;;;;1999.90;999.90;;;17.20;99.90;;;;;;5079773;28;20028;-70
2023/05/11 08:15:27;;;;;;;1999.90;999.90;;;17.20;99.90;;;;;;5073753;28;20553;-69
2023/05/11 08:17:55;;;;;;;1999.90;999.90;;;17.20;99.90;;;;;;5075352;28;20038;-70
2023/05/11 08:20:23;;;;;;;1999.90;999.90;;;17.20;99.90;;;;;;5084554;28;20434;-70
2023/05/11 08:22:50;;;;;;;1999.90;999.90;;;17.20;99.90;;;;;;5071801;28;20032;-69
2023/05/11 08:25:18;;;;;;;1999.90;999.90;;;17.10;99.90;;;;;;5080272;28;20020;-69
2023/05/11 08:27:45;;;;;;;1999.90;999.90;;;17.10;99.90;;;;;;5096239;28;20751;-69
2023/05/11 08:30:13;;;;;;;1999.90;999.90;;;17.10;99.90;;;;;;5080655;28;20420;-68
2023/05/11 08:32:40;;;;;;;1999.90;999.90;;;17.00;99.90;;;;;;5073075;28;20023;-68
2023/05/11 08:35:08;;;;;;;1999.90;999.90;;;17.00;99.90;;;;;;5085843;28;20027;-69
2023/05/11 08:37:35;;;;;;;1999.90;999.90;;;17.00;99.90;;;;;;5092330;28;20111;-69
2023/05/11 08:40:03;;;;;;;1999.90;999.90;;;16.90;99.90;;;;;;5073283;28;20032;-69
2023/05/11 08:42:36;;;;;;;1999.90;999.90;;;16.90;99.90;;;;;;5086353;28;20023;-68
2023/05/11 08:45:05;;;;;;;1999.90;999.90;;;16.80;99.90;;;;;;5089756;28;20066;-68
2023/05/11 08:47:33;;;;;;;1999.90;999.90;;;16.80;99.90;;;;;;5088422;28;20032;-69
2023/05/11 08:50:00;;;;;;;1999.90;999.90;;;16.70;99.90;;;;;;5078471;28;20565;-69
2023/05/11 08:52:27;;;;;;;1999.90;999.90;;;16.60;99.90;;;;;;5089513;28;20087;-69
2023/05/11 08:54:55;;;;;;;1999.90;999.90;;;16.60;99.90;;;;;;5088548;28;20533;-68
2023/05/11 08:57:23;;;;;;;1999.90;999.90;;;16.60;99.90;;;;;;5086975;28;20417;-69
2023/05/11 08:59:51;;;;;;;1999.90;999.90;;;16.60;99.90;;;;;;5079521;28;20039;-69
2023/05/11 09:02:23;;;;;;;1999.90;999.90;;;16.50;99.90;;;;;;5082477;28;20051;-69
2023/05/11 09:04:51;;;;;;;1999.90;999.90;;;16.50;99.90;;;;;;5083189;28;21714;-68
2023/05/11 09:07:18;;;;;;;1999.90;999.90;;;16.50;99.90;;;;;;5089907;28;20051;-69
2023/05/11 09:09:47;;;;;;;1999.90;999.90;;;16.40;99.90;;;;;;5084287;28;20073;-69
2023/05/11 09:12:15;;;;;;;1999.90;999.90;;;16.40;99.90;;;;;;5084272;28;20027;-69
2023/05/11 09:14:43;;;;;;;1999.90;999.90;;;16.30;99.90;;;;;;5080355;28;20482;-67
2023/05/11 09:17:11;;;;;;;1999.90;999.90;;;16.30;99.90;;;;;;5069407;28;20028;-70
2023/05/11 09:19:59;;;;;;;1999.90;999.90;;;16.20;99.90;;;;;;5079970;28;20050;-68
2023/05/11 09:22:27;;;;;;;1999.90;999.90;;;16.10;99.90;;;;;;5088592;28;20613;-68
2023/05/11 09:24:54;;;;;;;1999.90;999.90;;;16.10;99.90;;;;;;5077832;28;20156;-68
2023/05/11 09:27:24;;;;;;;1999.90;999.90;;;16.00;99.90;;;;;;5082279;28;20479;-67
2023/05/11 09:29:55;;;;;;;1999.90;999.90;;;15.90;99.90;;;;;;5089179;28;20104;-68
2023/05/11 09:32:22;;;;;;;1999.90;999.90;;;15.70;99.90;;;;;;5090283;28;20107;-69
2023/05/11 09:34:50;;;;;;;1999.90;999.90;;;15.60;99.90;;;;;;5082309;28;20019;-69
2023/05/11 09:37:18;;;;;;;1999.90;999.90;;;15.50;99.90;;;;;;5083018;28;20032;-69
2023/05/11 09:39:46;;;;;;;1999.90;999.90;;;15.50;99.90;;;;;;5082431;28;20617;-68
2023/05/11 09:42:17;;;;;;;1999.90;999.90;;;15.50;99.90;;;;;;5081131;28;20051;-70
2023/05/11 09:44:46;;;;;;;1999.90;999.90;;;15.50;99.90;;;;;;5088268;28;20526;-69
2023/05/11 09:47:15;;;;;;;1999.90;999.90;;;15.40;99.90;;;;;;5085598;28;20032;-69
2023/05/11 09:49:44;;;;;;;1999.90;999.90;;;15.40;99.90;;;;;;5081848;28;20020;-68
2023/05/11 09:52:16;;;;;;;1999.90;999.90;;;15.30;99.90;;;;;;5094442;28;20581;-70
2023/05/11 09:54:45;;;;;;;1999.90;999.90;;;15.20;99.90;;;;;;5085334;28;20026;-70
2023/05/11 09:57:28;;;;;;;1999.90;999.90;;;15.20;99.90;;;;;;5095104;28;20019;-70
2023/05/11 09:59:57;;;;;;;1999.90;999.90;;;15.10;99.90;;;;;;5090650;28;20074;-68
2023/05/11 10:02:30;;;;;;;1999.90;999.90;;;15.10;99.90;;;;;;5097532;28;20072;-70
2023/05/11 10:05:00;;;;;;;1999.90;999.90;;;15.00;99.90;;;;;;5092078;28;20416;-69
2023/05/11 10:07:32;;;;;;;1999.90;999.90;;;14.90;99.90;;;;;;5089841;28;20461;-69
2023/05/11 10:10:04;;;;;;;1999.90;999.90;;;14.90;99.90;;;;;;5084439;28;20107;-69
2023/05/11 10:12:32;;;;;;;1999.90;999.90;;;14.80;99.90;;;;;;5095375;28;20378;-68
2023/05/11 10:15:05;;;;;;;1999.90;999.90;;;14.80;99.90;;;;;;5093095;28;20028;-69
2023/05/11 10:17:34;;;;;;;1999.90;999.90;;;14.70;99.90;;;;;;5092214;28;20026;-68
2023/05/11 10:20:03;;;;;;;1999.90;999.90;;;14.70;99.90;;;;;;5073102;28;20485;-68
2023/05/11 10:22:30;;;;;;;1999.90;999.90;;;14.70;99.90;;;;;;5088298;28;20050;-67
2023/05/11 10:24:59;;;;;;;1999.90;999.90;;;14.60;99.90;;;;;;5086120;28;20032;-69
2023/05/11 10:27:27;;;;;;;1999.90;999.90;;;14.60;99.90;;;;;;5093759;28;20044;-66
2023/05/11 10:29:55;;;;;;;1999.90;999.90;;;14.50;99.90;;;;;;5086027;28;20023;-67
2023/05/11 10:32:22;;;;;;;1999.90;999.90;;;14.40;99.90;;;;;;5090269;28;20029;-68
2023/05/11 10:34:50;;;;;;;1999.90;999.90;;;14.40;99.90;;;;;;5086110;28;20397;-69
2023/05/11 10:37:19;;;;;;;1999.90;999.90;;;14.30;99.90;;;;;;5088635;28;20409;-68
2023/05/11 10:39:48;;;;;;;1999.90;999.90;;;14.20;99.90;;;;;;5094579;28;20024;-70
2023/05/11 10:42:36;;;;;;;1999.90;999.90;;;14.20;99.90;;;;;;5085180;28;20051;-70
2023/05/11 10:45:14;;;;;;;1999.90;999.90;;;14.10;99.90;;;;;;5088987;28;20027;-69
2023/05/11 10:47:53;;;;;;;1999.90;999.90;;;14.10;99.90;;;;;;5079237;28;20032;-69
2023/05/11 10:50:41;;;;;;;1999.90;999.90;;;14.00;99.90;;;;;;5082358;28;20038;-68
2023/05/11 10:53:40;;;;;;;1999.90;999.90;;;14.00;99.90;;;;;;5078896;28;21112;-69
2023/05/11 10:56:19;;;;;;;1999.90;999.90;;;13.90;99.90;;;;;;5048550;28;20027;-68
2023/05/11 10:59:20;;;;;;;1999.90;999.90;;;13.80;99.90;;;;;;5081364;28;20501;-69
2023/05/11 11:01:53;;;;;;;1999.90;999.90;;;13.70;99.90;;;;;;5078254;28;20051;-70
2023/05/11 11:04:21;;;;;;;1999.90;999.90;;;13.60;99.90;;;;;;5077120;28;20504;-69
2023/05/11 11:07:05;;;;;;;1999.90;999.90;;;13.60;99.90;;;;;;5087438;28;20097;-70
2023/05/11 11:09:59;;;;;;;1999.90;999.90;;;13.50;99.90;;;;;;5074575;28;20031;-69
2023/05/11 11:12:33;;;;;;;1999.90;999.90;;;13.50;99.90;;;;;;5079330;28;20031;-70
2023/05/11 11:15:04;;;;;;;1999.90;999.90;;;13.40;99.90;;;;;;5073976;28;20032;-69
2023/05/11 11:17:33;;;;;;;1999.90;999.90;;;13.30;99.90;;;;;;5092245;28;20016;-69
2023/05/11 11:20:08;;;;;;;1999.90;999.90;;;13.20;99.90;;;;;;5089389;28;20023;-68
2023/05/11 11:22:40;;;;;;;1999.90;999.90;;;13.20;99.90;;;;;;5092872;28;20445;-67
2023/05/11 11:25:14;;;;;;;1999.90;999.90;;;13.20;99.90;;;;;;5090389;28;20701;-69
2023/05/11 11:27:45;;;;;;;1999.90;999.90;;;13.10;99.90;;;;;;5100301;28;20027;-70
2023/05/11 11:30:22;;;;;;;1999.90;999.90;;;13.10;99.90;;;;;;5090780;28;20111;-68
2023/05/11 11:33:11;;;;;;;1999.90;999.90;;;13.10;99.90;;;;;;5093471;28;20107;-68
2023/05/11 11:35:42;;;;;;;1999.90;999.90;;;13.00;99.90;;;;;;5092756;28;20027;-68
2023/05/11 11:38:14;;;;;;;1999.90;999.90;;;12.90;99.90;;;;;;5093041;28;20078;-68
2023/05/11 11:40:48;;;;;;;1999.90;999.90;;;12.90;99.90;;;;;;5080280;28;20036;-69
2023/05/11 11:43:18;;;;;;;1999.90;999.90;;;12.80;99.90;;;;;;5086394;28;20035;-66
2023/05/11 11:45:58;;;;;;;1999.90;999.90;;;12.80;99.90;;;;;;5086823;28;20473;-68
2023/05/11 11:48:39;;;;;;;1999.90;999.90;;;12.70;99.90;;;;;;5095350;28;20028;-69
2023/05/11 11:51:09;;;;;;;1999.90;999.90;;;12.70;99.90;;;;;;5093450;28;20510;-69
2023/05/11 11:53:44;;;;;;;1999.90;999.90;;;12.60;99.90;;;;;;5097358;28;20034;-68
2023/05/11 11:56:14;;;;;;;1999.90;999.90;;;12.60;99.90;;;;;;5095434;28;20023;-67
2023/05/11 11:58:44;;;;;;;1999.90;999.90;;;12.60;99.90;;;;;;5083010;28;20040;-68
2023/05/11 12:01:15;;;;;;;1999.90;999.90;;;12.60;99.90;;;;;;5090093;28;20047;-67
2023/05/11 12:03:45;;;;;;;1999.90;999.90;;;12.50;99.90;;;;;;5079272;28;20033;-68
2023/05/11 12:06:13;;;;;;;1999.90;999.90;;;12.50;99.90;;;;;;5090053;28;20086;-67
2023/05/11 12:08:42;;;;;;;1999.90;999.90;;;12.50;99.90;;;;;;5084598;28;20028;-68
2023/05/11 12:11:09;;;;;;;1999.90;999.90;;;12.50;99.90;;;;;;5076508;28;20055;-68
2023/05/11 12:13:37;;;;;;;1999.90;999.90;;;12.50;99.90;;;;;;5089471;28;20032;-68